sensor_id;sensor_type;location;lat;lon;timestamp;pressure;altitude;pressure_sealevel;temperature;humidity
20656;BME280;10487;53.320;8.672;2023-01-29T00:01:06;102530.97;;;1.07;60.56
20656;BME280;10487;53.320;8.672;2023-01-29T00:04:08;102526.59;;;1.05;60.78
20656;BME280;10487;53.320;8.672;2023-01-29T00:07:09;102525.72;;;1.04;60.48
20656;BME280;10487;53.320;8.672;2023-01-29T00:10:11;102523.97;;;1.03;60.42
20656;BME280;10487;53.320;8.672;2023-01-29T00:13:13;102511.72;;;1.02;60.45
20656;BME280;10487;53.320;8.672;2023-01-29T00:16:14;102507.34;;;1.03;60.39
20656;BME280;10487;53.320;8.672;2023-01-29T00:19:16;102481.03;;;1.01;60.40
20656;BME280;10487;53.320;8.672;2023-01-29T00:22:17;102467.91;;;1.01;60.71
20656;BME280;10487;53.320;8.672;2023-01-29T00:25:19;102470.53;;;1.03;60.64
20656;BME280;10487;53.320;8.672;2023-01-29T00:28:21;102473.16;;;1.03;60.45
20656;BME280;10487;53.320;8.672;2023-01-29T00:31:23;102473.16;;;1.01;60.65
20656;BME280;10487;53.320;8.672;2023-01-29T00:34:25;102460.03;;;0.98;60.50
20656;BME280;10487;53.320;8.672;2023-01-29T00:37:27;102466.19;;;0.97;60.76
20656;BME280;10487;53.320;8.672;2023-01-29T00:40:28;102456.56;;;0.95;60.88
20656;BME280;10487;53.320;8.672;2023-01-29T00:43:50;102456.56;;;0.93;60.48
20656;BME280;10487;53.320;8.672;2023-01-29T00:47:12;102468.88;;;0.90;60.88
20656;BME280;10487;53.320;8.672;2023-01-29T00:50:34;102465.38;;;0.88;60.61
20656;BME280;10487;53.320;8.672;2023-01-29T00:53:35;102468.03;;;0.84;60.60
20656;BME280;10487;53.320;8.672;2023-01-29T00:56:37;102475.91;;;0.84;60.68
20656;BME280;10487;53.320;8.672;2023-01-29T00:59:38;102477.63;;;0.84;60.91
20656;BME280;10487;53.320;8.672;2023-01-29T01:02:40;102478.50;;;0.83;60.54
20656;BME280;10487;53.320;8.672;2023-01-29T01:06:05;102482.03;;;0.82;60.75
20656;BME280;10487;53.320;8.672;2023-01-29T01:09:08;102478.50;;;0.83;60.63
20656;BME280;10487;53.320;8.672;2023-01-29T01:12:29;102471.50;;;0.82;60.57
20656;BME280;10487;53.320;8.672;2023-01-29T01:15:37;102477.63;;;0.81;60.78
20656;BME280;10487;53.320;8.672;2023-01-29T01:18:40;102484.66;;;0.82;60.69
20656;BME280;10487;53.320;8.672;2023-01-29T01:21:41;102483.75;;;0.83;60.87
20656;BME280;10487;53.320;8.672;2023-01-29T01:24:48;102484.63;;;0.83;60.80
20656;BME280;10487;53.320;8.672;2023-01-29T01:27:52;102475.88;;;0.83;60.82
20656;BME280;10487;53.320;8.672;2023-01-29T01:30:53;102476.75;;;0.82;60.65
20656;BME280;10487;53.320;8.672;2023-01-29T01:33:55;102481.13;;;0.83;60.68
20656;BME280;10487;53.320;8.672;2023-01-29T01:36:57;102482.00;;;0.83;60.63
20656;BME280;10487;53.320;8.672;2023-01-29T01:39:58;102479.38;;;0.83;60.98
20656;BME280;10487;53.320;8.672;2023-01-29T01:43:00;102464.47;;;0.84;60.69
20656;BME280;10487;53.320;8.672;2023-01-29T01:46:02;102469.75;;;0.85;60.99
20656;BME280;10487;53.320;8.672;2023-01-29T01:49:17;102470.63;;;0.86;60.87
20656;BME280;10487;53.320;8.672;2023-01-29T01:52:20;102472.38;;;0.84;61.20
20656;BME280;10487;53.320;8.672;2023-01-29T01:55:24;102463.66;;;0.85;61.09
20656;BME280;10487;53.320;8.672;2023-01-29T01:58:50;102463.59;;;0.83;60.87
20656;BME280;10487;53.320;8.672;2023-01-29T02:01:53;102462.78;;;0.84;60.88
20656;BME280;10487;53.320;8.672;2023-01-29T02:04:55;102469.75;;;0.84;60.89
20656;BME280;10487;53.320;8.672;2023-01-29T02:08:21;102465.38;;;0.81;60.87
20656;BME280;10487;53.320;8.672;2023-01-29T02:11:43;102470.66;;;0.80;60.90
20656;BME280;10487;53.320;8.672;2023-01-29T02:14:45;102474.16;;;0.79;60.94
20656;BME280;10487;53.320;8.672;2023-01-29T02:17:47;102470.66;;;0.77;61.01
20656;BME280;10487;53.320;8.672;2023-01-29T02:31:14;102475.97;;;0.66;60.74
20656;BME280;10487;53.320;8.672;2023-01-29T02:34:24;102461.97;;;0.64;60.81
20656;BME280;10487;53.320;8.672;2023-01-29T02:37:35;102454.97;;;0.63;61.05
20656;BME280;10487;53.320;8.672;2023-01-29T02:40:52;102457.63;;;0.62;60.91
20656;BME280;10487;53.320;8.672;2023-01-29T02:47:16;102447.09;;;0.62;61.13
20656;BME280;10487;53.320;8.672;2023-01-29T02:50:28;102440.09;;;0.62;61.00
20656;BME280;10487;53.320;8.672;2023-01-29T02:53:40;102437.47;;;0.62;61.03
20656;BME280;10487;53.320;8.672;2023-01-29T02:56:53;102429.56;;;0.64;60.88
20656;BME280;10487;53.320;8.672;2023-01-29T02:59:59;102413.81;;;0.64;60.94
20656;BME280;10487;53.320;8.672;2023-01-29T03:03:15;102407.69;;;0.65;61.05
20656;BME280;10487;53.320;8.672;2023-01-29T03:06:30;102398.03;;;0.67;60.81
20656;BME280;10487;53.320;8.672;2023-01-29T03:09:36;102400.66;;;0.64;61.16
20656;BME280;10487;53.320;8.672;2023-01-29T03:12:41;102391.06;;;0.63;60.93
20656;BME280;10487;53.320;8.672;2023-01-29T03:15:58;102378.81;;;0.60;60.84
20656;BME280;10487;53.320;8.672;2023-01-29T03:22:09;102363.06;;;0.57;61.12
20656;BME280;10487;53.320;8.672;2023-01-29T03:25:13;102361.31;;;0.58;60.85
20656;BME280;10487;53.320;8.672;2023-01-29T03:28:34;102357.81;;;0.56;61.04
20656;BME280;10487;53.320;8.672;2023-01-29T03:31:55;102343.81;;;0.55;60.80
20656;BME280;10487;53.320;8.672;2023-01-29T03:35:10;102338.56;;;0.54;60.75
20656;BME280;10487;53.320;8.672;2023-01-29T03:38:14;102345.59;;;0.52;61.15
20656;BME280;10487;53.320;8.672;2023-01-29T03:41:24;102343.84;;;0.52;60.81
20656;BME280;10487;53.320;8.672;2023-01-29T03:44:33;102340.34;;;0.52;61.07
20656;BME280;10487;53.320;8.672;2023-01-29T03:50:53;102350.81;;;0.53;61.16
20656;BME280;10487;53.320;8.672;2023-01-29T03:57:13;102354.34;;;0.52;61.11
20656;BME280;10487;53.320;8.672;2023-01-29T04:00:21;102344.72;;;0.51;61.04
20656;BME280;10487;53.320;8.672;2023-01-29T04:03:30;102353.44;;;0.53;61.16
20656;BME280;10487;53.320;8.672;2023-01-29T04:06:36;102350.81;;;0.55;60.90
20656;BME280;10487;53.320;8.672;2023-01-29T04:10:03;102348.19;;;0.55;60.90
20656;BME280;10487;53.320;8.672;2023-01-29T04:13:10;102347.31;;;0.54;61.03
20656;BME280;10487;53.320;8.672;2023-01-29T04:16:17;102355.19;;;0.56;61.12
20656;BME280;10487;53.320;8.672;2023-01-29T04:19:21;102347.28;;;0.56;60.82
20656;BME280;10487;53.320;8.672;2023-01-29T04:22:29;102343.78;;;0.57;60.95
20656;BME280;10487;53.320;8.672;2023-01-29T04:25:42;102351.69;;;0.57;60.80
20656;BME280;10487;53.320;8.672;2023-01-29T04:29:02;102344.66;;;0.56;60.98
20656;BME280;10487;53.320;8.672;2023-01-29T04:45:07;102351.69;;;0.57;60.99
20656;BME280;10487;53.320;8.672;2023-01-29T04:51:24;102363.91;;;0.59;61.17
20656;BME280;10487;53.320;8.672;2023-01-29T04:54:53;102362.16;;;0.61;60.87
20656;BME280;10487;53.320;8.672;2023-01-29T04:58:12;102360.41;;;0.59;60.79
20656;BME280;10487;53.320;8.672;2023-01-29T05:01:15;102350.81;;;0.58;61.00
20656;BME280;10487;53.320;8.672;2023-01-29T05:04:19;102335.03;;;0.56;61.14
20656;BME280;10487;53.320;8.672;2023-01-29T05:07:22;102318.41;;;0.57;61.00
20656;BME280;10487;53.320;8.672;2023-01-29T05:10:25;102314.88;;;0.60;61.05
20656;BME280;10487;53.320;8.672;2023-01-29T05:13:29;102319.22;;;0.61;61.15
20656;BME280;10487;53.320;8.672;2023-01-29T05:16:37;102318.38;;;0.62;60.98
20656;BME280;10487;53.320;8.672;2023-01-29T05:19:43;102328.88;;;0.62;61.01
20656;BME280;10487;53.320;8.672;2023-01-29T05:22:46;102321.88;;;0.62;60.87
20656;BME280;10487;53.320;8.672;2023-01-29T05:25:50;102301.72;;;0.63;61.14
20656;BME280;10487;53.320;8.672;2023-01-29T05:28:52;102315.72;;;0.63;61.07
20656;BME280;10487;53.320;8.672;2023-01-29T05:31:56;102315.72;;;0.63;61.14
20656;BME280;10487;53.320;8.672;2023-01-29T05:34:58;102311.34;;;0.64;60.90
20656;BME280;10487;53.320;8.672;2023-01-29T05:37:59;102295.56;;;0.64;61.03
20656;BME280;10487;53.320;8.672;2023-01-29T05:41:01;102285.94;;;0.64;61.25
20656;BME280;10487;53.320;8.672;2023-01-29T05:44:03;102300.81;;;0.67;60.98
20656;BME280;10487;53.320;8.672;2023-01-29T05:47:04;102307.66;;;0.83;60.89
20656;BME280;10487;53.320;8.672;2023-01-29T05:50:07;102295.41;;;0.83;60.85
20656;BME280;10487;53.320;8.672;2023-01-29T05:53:08;102291.91;;;0.86;61.16
20656;BME280;10487;53.320;8.672;2023-01-29T05:56:10;102300.66;;;0.86;61.08
20656;BME280;10487;53.320;8.672;2023-01-29T05:59:12;102298.91;;;0.85;61.13
20656;BME280;10487;53.320;8.672;2023-01-29T06:02:13;102310.28;;;0.83;60.95
20656;BME280;10487;53.320;8.672;2023-01-29T06:05:15;102284.91;;;0.82;61.12
20656;BME280;10487;53.320;8.672;2023-01-29T06:08:17;102284.91;;;0.82;60.90
20656;BME280;10487;53.320;8.672;2023-01-29T06:11:18;102279.63;;;0.83;60.93
20656;BME280;10487;53.320;8.672;2023-01-29T06:14:20;102284.00;;;0.83;60.98
20656;BME280;10487;53.320;8.672;2023-01-29T06:17:22;102296.28;;;0.87;60.94
20656;BME280;10487;53.320;8.672;2023-01-29T06:20:24;102285.78;;;0.87;60.79
20656;BME280;10487;53.320;8.672;2023-01-29T06:23:25;102269.09;;;0.88;60.75
20656;BME280;10487;53.320;8.672;2023-01-29T06:26:27;102253.34;;;0.88;60.99
20656;BME280;10487;53.320;8.672;2023-01-29T06:29:28;102247.19;;;0.89;60.83
20656;BME280;10487;53.320;8.672;2023-01-29T06:32:30;102252.47;;;0.89;61.29
20656;BME280;10487;53.320;8.672;2023-01-29T06:35:32;102256.81;;;0.92;60.81
20656;BME280;10487;53.320;8.672;2023-01-29T06:38:33;102254.19;;;0.92;60.98
20656;BME280;10487;53.320;8.672;2023-01-29T06:41:35;102269.94;;;0.93;60.88
20656;BME280;10487;53.320;8.672;2023-01-29T06:44:37;102255.03;;;0.94;60.95
20656;BME280;10487;53.320;8.672;2023-01-29T06:47:38;102261.16;;;0.94;60.91
20656;BME280;10487;53.320;8.672;2023-01-29T06:50:40;102271.69;;;0.94;60.79
20656;BME280;10487;53.320;8.672;2023-01-29T06:53:41;102265.56;;;0.95;60.83
20656;BME280;10487;53.320;8.672;2023-01-29T06:56:46;102259.41;;;0.95;60.97
20656;BME280;10487;53.320;8.672;2023-01-29T06:59:48;102253.22;;;0.99;61.22
20656;BME280;10487;53.320;8.672;2023-01-29T07:02:49;102244.47;;;1.00;61.01
20656;BME280;10487;53.320;8.672;2023-01-29T07:05:51;102251.47;;;0.99;61.00
20656;BME280;10487;53.320;8.672;2023-01-29T07:08:54;102241.84;;;1.00;61.06
20656;BME280;10487;53.320;8.672;2023-01-29T07:11:56;102262.88;;;0.98;61.08
20656;BME280;10487;53.320;8.672;2023-01-29T07:14:57;102252.34;;;1.00;61.17
20656;BME280;10487;53.320;8.672;2023-01-29T07:18:00;102255.88;;;1.00;61.20
20656;BME280;10487;53.320;8.672;2023-01-29T07:21:06;102252.34;;;1.01;61.15
20656;BME280;10487;53.320;8.672;2023-01-29T07:24:07;102252.34;;;1.00;60.93
20656;BME280;10487;53.320;8.672;2023-01-29T07:27:09;102247.59;;;1.30;62.39
20656;BME280;10487;53.320;8.672;2023-01-29T07:30:11;102255.94;;;1.67;61.88
20656;BME280;10487;53.320;8.672;2023-01-29T07:33:13;102241.81;;;1.74;61.39
20656;BME280;10487;53.320;8.672;2023-01-29T07:36:15;102237.47;;;1.72;61.24
20656;BME280;10487;53.320;8.672;2023-01-29T07:39:17;102225.28;;;1.65;60.99
20656;BME280;10487;53.320;8.672;2023-01-29T07:42:18;102228.84;;;1.58;61.04
20656;BME280;10487;53.320;8.672;2023-01-29T07:45:20;102221.94;;;1.52;61.00
20656;BME280;10487;53.320;8.672;2023-01-29T07:48:21;102226.38;;;1.47;61.11
20656;BME280;10487;53.320;8.672;2023-01-29T07:51:23;102225.53;;;1.43;61.57
20656;BME280;10487;53.320;8.672;2023-01-29T07:54:25;102218.59;;;1.39;61.54
20656;BME280;10487;53.320;8.672;2023-01-29T07:57:27;102227.38;;;1.35;61.44
20656;BME280;10487;53.320;8.672;2023-01-29T08:00:30;102217.78;;;1.33;61.33
20656;BME280;10487;53.320;8.672;2023-01-29T08:03:32;102224.81;;;1.31;61.18
20656;BME280;10487;53.320;8.672;2023-01-29T08:06:33;102222.22;;;1.28;61.34
20656;BME280;10487;53.320;8.672;2023-01-29T08:09:35;102234.56;;;1.24;61.60
20656;BME280;10487;53.320;8.672;2023-01-29T08:12:37;102220.56;;;1.22;61.50
20656;BME280;10487;53.320;8.672;2023-01-29T08:15:41;102221.47;;;1.20;61.58
20656;BME280;10487;53.320;8.672;2023-01-29T08:18:44;102208.31;;;1.18;61.60
20656;BME280;10487;53.320;8.672;2023-01-29T08:21:48;102217.09;;;1.17;61.58
20656;BME280;10487;53.320;8.672;2023-01-29T08:24:49;102220.59;;;1.19;61.72
20656;BME280;10487;53.320;8.672;2023-01-29T08:28:00;102217.09;;;1.17;61.51
20656;BME280;10487;53.320;8.672;2023-01-29T08:31:02;102222.38;;;1.17;61.40
20656;BME280;10487;53.320;8.672;2023-01-29T08:34:04;102225.84;;;1.18;61.27
20656;BME280;10487;53.320;8.672;2023-01-29T08:37:05;102215.31;;;1.18;61.52
20656;BME280;10487;53.320;8.672;2023-01-29T08:40:07;102216.22;;;1.17;61.36
20656;BME280;10487;53.320;8.672;2023-01-29T08:43:12;102215.34;;;1.16;61.47
20656;BME280;10487;53.320;8.672;2023-01-29T08:46:13;102208.34;;;1.15;61.34
20656;BME280;10487;53.320;8.672;2023-01-29T08:49:15;102196.97;;;1.15;61.65
20656;BME280;10487;53.320;8.672;2023-01-29T08:52:17;102208.34;;;1.15;61.65
20656;BME280;10487;53.320;8.672;2023-01-29T08:55:18;102194.34;;;1.15;61.25
20656;BME280;10487;53.320;8.672;2023-01-29T08:58:20;102194.31;;;1.16;61.72
20656;BME280;10487;53.320;8.672;2023-01-29T09:01:22;102195.19;;;1.17;61.38
20656;BME280;10487;53.320;8.672;2023-01-29T09:04:24;102175.88;;;1.18;61.31
20656;BME280;10487;53.320;8.672;2023-01-29T09:07:25;102167.13;;;1.19;61.70
20656;BME280;10487;53.320;8.672;2023-01-29T09:10:27;102162.72;;;1.22;61.62
20656;BME280;10487;53.320;8.672;2023-01-29T09:13:28;102175.81;;;1.24;61.68
20656;BME280;10487;53.320;8.672;2023-01-29T09:16:30;102173.16;;;1.25;61.24
20656;BME280;10487;53.320;8.672;2023-01-29T09:19:33;102171.41;;;1.26;61.69
20656;BME280;10487;53.320;8.672;2023-01-29T09:22:35;102173.16;;;1.27;61.59
20656;BME280;10487;53.320;8.672;2023-01-29T09:25:37;102176.63;;;1.29;61.44
20656;BME280;10487;53.320;8.672;2023-01-29T09:28:39;102178.34;;;1.31;61.63
20656;BME280;10487;53.320;8.672;2023-01-29T09:31:40;102170.44;;;1.33;61.41
20656;BME280;10487;53.320;8.672;2023-01-29T09:34:42;102174.81;;;1.34;61.61
20656;BME280;10487;53.320;8.672;2023-01-29T09:37:48;102171.28;;;1.36;61.63
20656;BME280;10487;53.320;8.672;2023-01-29T09:44:56;102160.72;;;1.39;61.56
20656;BME280;10487;53.320;8.672;2023-01-29T09:47:37;102162.44;;;1.40;61.30
20656;BME280;10487;53.320;8.672;2023-01-29T09:50:41;102161.53;;;1.43;61.50
20656;BME280;10487;53.320;8.672;2023-01-29T09:54:32;102151.88;;;1.45;61.29
20656;BME280;10487;53.320;8.672;2023-01-29T09:57:14;102143.97;;;1.46;61.48
20656;BME280;10487;53.320;8.672;2023-01-29T10:00:27;102128.13;;;1.49;61.66
20656;BME280;10487;53.320;8.672;2023-01-29T10:13:30;102120.09;;;1.59;61.51
20656;BME280;10487;53.320;8.672;2023-01-29T10:23:46;102129.56;;;1.72;61.50
20656;BME280;10487;53.320;8.672;2023-01-29T10:26:50;102115.44;;;1.76;61.12
20656;BME280;10487;53.320;8.672;2023-01-29T10:29:53;102125.09;;;1.77;61.56
20656;BME280;10487;53.320;8.672;2023-01-29T10:33:00;102128.53;;;1.80;61.27
20656;BME280;10487;53.320;8.672;2023-01-29T10:36:07;102124.09;;;1.82;61.09
20656;BME280;10487;53.320;8.672;2023-01-29T10:39:19;102112.66;;;1.85;61.37
20656;BME280;10487;53.320;8.672;2023-01-29T10:42:25;102120.50;;;1.89;61.38
20656;BME280;10487;53.320;8.672;2023-01-29T10:45:58;102103.78;;;1.92;61.52
20656;BME280;10487;53.320;8.672;2023-01-29T10:49:11;102091.41;;;1.97;61.44
20656;BME280;10487;53.320;8.672;2023-01-29T10:52:43;102081.69;;;2.02;61.31
20656;BME280;10487;53.320;8.672;2023-01-29T11:03:28;102068.16;;;2.20;61.02
20656;BME280;10487;53.320;8.672;2023-01-29T11:12:44;102053.19;;;2.22;61.35
20656;BME280;10487;53.320;8.672;2023-01-29T11:15:50;102055.81;;;2.24;61.31
20656;BME280;10487;53.320;8.672;2023-01-29T11:18:56;102055.78;;;2.27;61.27
20656;BME280;10487;53.320;8.672;2023-01-29T11:21:59;102048.75;;;2.26;61.13
20656;BME280;10487;53.320;8.672;2023-01-29T11:25:18;102043.44;;;2.27;61.31
20656;BME280;10487;53.320;8.672;2023-01-29T11:28:39;102036.47;;;2.26;61.42
20656;BME280;10487;53.320;8.672;2023-01-29T11:31:41;102025.94;;;2.26;61.17
20656;BME280;10487;53.320;8.672;2023-01-29T11:38:07;102027.63;;;2.29;61.13
20656;BME280;10487;53.320;8.672;2023-01-29T11:41:16;102017.09;;;2.29;61.32
20656;BME280;10487;53.320;8.672;2023-01-29T11:44:50;102013.59;;;2.28;61.49
20656;BME280;10487;53.320;8.672;2023-01-29T11:47:53;101998.66;;;2.29;61.16
20656;BME280;10487;53.320;8.672;2023-01-29T11:50:57;101995.16;;;2.28;61.14
20656;BME280;10487;53.320;8.672;2023-01-29T11:54:14;101985.50;;;2.29;61.45
20656;BME280;10487;53.320;8.672;2023-01-29T11:57:31;101979.28;;;2.31;61.22
20656;BME280;10487;53.320;8.672;2023-01-29T12:00:35;101974.91;;;2.32;61.14
20656;BME280;10487;53.320;8.672;2023-01-29T12:03:43;101968.72;;;2.33;61.09
20656;BME280;10487;53.320;8.672;2023-01-29T12:06:50;101967.84;;;2.32;61.32
20656;BME280;10487;53.320;8.672;2023-01-29T12:09:56;101966.06;;;2.33;61.45
20656;BME280;10487;53.320;8.672;2023-01-29T12:23:20;101956.41;;;2.33;61.24
20656;BME280;10487;53.320;8.672;2023-01-29T12:26:29;101943.28;;;2.32;61.43
20656;BME280;10487;53.320;8.672;2023-01-29T12:33:19;101932.72;;;2.33;61.51
20656;BME280;10487;53.320;8.672;2023-01-29T12:36:37;101926.56;;;2.34;61.38
20656;BME280;10487;53.320;8.672;2023-01-29T12:39:41;101932.72;;;2.33;61.05
20656;BME280;10487;53.320;8.672;2023-01-29T12:42:47;101923.94;;;2.33;61.25
20656;BME280;10487;53.320;8.672;2023-01-29T12:45:53;101912.50;;;2.34;61.51
20656;BME280;10487;53.320;8.672;2023-01-29T12:48:59;101908.13;;;2.33;61.38
20656;BME280;10487;53.320;8.672;2023-01-29T12:52:16;101892.38;;;2.31;61.54
20656;BME280;10487;53.320;8.672;2023-01-29T12:55:27;101892.38;;;2.31;61.33
20656;BME280;10487;53.320;8.672;2023-01-29T12:58:50;101884.47;;;2.30;61.43
20656;BME280;10487;53.320;8.672;2023-01-29T13:01:56;101878.38;;;2.29;61.18
20656;BME280;10487;53.320;8.672;2023-01-29T13:05:22;101873.94;;;2.30;61.31
20656;BME280;10487;53.320;8.672;2023-01-29T13:08:31;101869.53;;;2.30;61.25
20656;BME280;10487;53.320;8.672;2023-01-29T13:11:52;101864.31;;;2.29;61.27
20656;BME280;10487;53.320;8.672;2023-01-29T13:14:58;101855.56;;;2.28;61.46
20656;BME280;10487;53.320;8.672;2023-01-29T13:21:36;101844.13;;;2.29;61.48
20656;BME280;10487;53.320;8.672;2023-01-29T13:24:40;101832.72;;;2.29;61.35
20656;BME280;10487;53.320;8.672;2023-01-29T13:27:50;101829.25;;;2.27;61.16
20656;BME280;10487;53.320;8.672;2023-01-29T13:34:15;101827.47;;;2.27;61.43
20656;BME280;10487;53.320;8.672;2023-01-29T13:37:24;101823.13;;;2.25;61.45
20656;BME280;10487;53.320;8.672;2023-01-29T13:40:30;101812.59;;;2.25;61.43
20656;BME280;10487;53.320;8.672;2023-01-29T13:43:37;101820.47;;;2.26;61.32
20656;BME280;10487;53.320;8.672;2023-01-29T13:46:40;101820.47;;;2.26;61.55
20656;BME280;10487;53.320;8.672;2023-01-29T13:53:28;101815.31;;;2.22;61.30
20656;BME280;10487;53.320;8.672;2023-01-29T13:59:53;101797.81;;;2.19;61.43
20656;BME280;10487;53.320;8.672;2023-01-29T14:05:59;101793.44;;;2.18;61.22
20656;BME280;10487;53.320;8.672;2023-01-29T14:09:00;101789.06;;;2.17;61.50
20656;BME280;10487;53.320;8.672;2023-01-29T14:12:03;101796.06;;;2.18;61.65
20656;BME280;10487;53.320;8.672;2023-01-29T14:18:23;101785.66;;;2.13;61.26
20656;BME280;10487;53.320;8.672;2023-01-29T14:21:28;101769.03;;;2.11;61.28
20656;BME280;10487;53.320;8.672;2023-01-29T14:24:32;101770.78;;;2.11;61.28
20656;BME280;10487;53.320;8.672;2023-01-29T14:27:35;101776.09;;;2.09;61.44
20656;BME280;10487;53.320;8.672;2023-01-29T14:30:38;101770.91;;;2.06;61.15
20656;BME280;10487;53.320;8.672;2023-01-29T14:33:42;101763.94;;;2.04;61.33
20656;BME280;10487;53.320;8.672;2023-01-29T14:36:46;101747.25;;;2.03;61.64
20656;BME280;10487;53.320;8.672;2023-01-29T14:39:52;101743.75;;;2.03;61.50
20656;BME280;10487;53.320;8.672;2023-01-29T14:43:16;101745.53;;;2.02;61.32
20656;BME280;10487;53.320;8.672;2023-01-29T14:49:53;101736.84;;;1.97;61.24
20656;BME280;10487;53.320;8.672;2023-01-29T14:59:32;101722.03;;;1.93;61.34
20656;BME280;10487;53.320;8.672;2023-01-29T15:02:42;101722.91;;;1.94;61.38
20656;BME280;10487;53.320;8.672;2023-01-29T15:05:48;101718.53;;;1.94;61.37
20656;BME280;10487;53.320;8.672;2023-01-29T15:08:59;101719.41;;;1.93;61.60
20656;BME280;10487;53.320;8.672;2023-01-29T15:15:35;101709.81;;;1.91;61.43
20656;BME280;10487;53.320;8.672;2023-01-29T15:18:40;101707.19;;;1.91;61.74
20656;BME280;10487;53.320;8.672;2023-01-29T15:22:12;101708.06;;;1.90;61.44
20656;BME280;10487;53.320;8.672;2023-01-29T15:25:14;101704.63;;;1.88;61.45
20656;BME280;10487;53.320;8.672;2023-01-29T15:28:16;101701.13;;;1.87;61.70
20656;BME280;10487;53.320;8.672;2023-01-29T15:31:18;101695.84;;;1.87;61.30
20656;BME280;10487;53.320;8.672;2023-01-29T15:34:20;101694.06;;;1.89;61.60
20656;BME280;10487;53.320;8.672;2023-01-29T15:37:33;101688.75;;;1.91;61.32
20656;BME280;10487;53.320;8.672;2023-01-29T15:40:35;101673.09;;;1.85;61.30
20656;BME280;10487;53.320;8.672;2023-01-29T15:43:42;101671.38;;;1.84;61.40
20656;BME280;10487;53.320;8.672;2023-01-29T15:46:51;101656.53;;;1.80;61.42
20656;BME280;10487;53.320;8.672;2023-01-29T15:49:55;101658.44;;;1.75;61.67
20656;BME280;10487;53.320;8.672;2023-01-29T15:53:00;101667.28;;;1.71;61.52
20656;BME280;10487;53.320;8.672;2023-01-29T15:56:08;101656.06;;;1.64;61.31
20656;BME280;10487;53.320;8.672;2023-01-29T15:59:18;101656.97;;;1.62;61.48
20656;BME280;10487;53.320;8.672;2023-01-29T16:05:30;101650.72;;;1.67;61.76
20656;BME280;10487;53.320;8.672;2023-01-29T16:08:33;101648.13;;;1.66;61.84
20656;BME280;10487;53.320;8.672;2023-01-29T16:11:36;101642.03;;;1.64;61.79
20656;BME280;10487;53.320;8.672;2023-01-29T16:14:39;101649.09;;;1.60;61.40
20656;BME280;10487;53.320;8.672;2023-01-29T16:17:43;101643.94;;;1.57;61.75
20656;BME280;10487;53.320;8.672;2023-01-29T16:20:49;101642.25;;;1.55;61.37
20656;BME280;10487;53.320;8.672;2023-01-29T16:24:00;101637.94;;;1.50;61.85
20656;BME280;10487;53.320;8.672;2023-01-29T16:27:11;101638.88;;;1.48;61.82
20656;BME280;10487;53.320;8.672;2023-01-29T16:30:15;101641.53;;;1.46;61.64
20656;BME280;10487;53.320;8.672;2023-01-29T16:33:17;101641.53;;;1.46;61.60
20656;BME280;10487;53.320;8.672;2023-01-29T16:36:24;101631.94;;;1.44;61.40
20656;BME280;10487;53.320;8.672;2023-01-29T16:39:31;101635.50;;;1.41;61.64
20656;BME280;10487;53.320;8.672;2023-01-29T16:42:34;101638.19;;;1.40;61.91
20656;BME280;10487;53.320;8.672;2023-01-29T16:45:36;101632.06;;;1.39;61.57
20656;BME280;10487;53.320;8.672;2023-01-29T16:48:37;101631.19;;;1.39;61.71
20656;BME280;10487;53.320;8.672;2023-01-29T16:51:39;101619.84;;;1.37;61.49
20656;BME280;10487;53.320;8.672;2023-01-29T16:54:44;101621.53;;;1.38;61.96
20656;BME280;10487;53.320;8.672;2023-01-29T16:57:50;101614.56;;;1.37;61.52
20656;BME280;10487;53.320;8.672;2023-01-29T17:01:05;101618.97;;;1.36;61.54
20656;BME280;10487;53.320;8.672;2023-01-29T17:04:16;101614.56;;;1.37;61.46
20656;BME280;10487;53.320;8.672;2023-01-29T17:07:21;101607.56;;;1.37;61.47
20656;BME280;10487;53.320;8.672;2023-01-29T17:10:26;101604.06;;;1.37;61.77
20656;BME280;10487;53.320;8.672;2023-01-29T17:13:39;101592.25;;;1.55;62.09
20656;BME280;10487;53.320;8.672;2023-01-29T17:17:34;101577.72;;;1.75;62.61
20656;BME280;10487;53.320;8.672;2023-01-29T17:20:12;101576.47;;;1.90;61.85
20656;BME280;10487;53.320;8.672;2023-01-29T17:23:14;101569.63;;;1.84;61.57
20656;BME280;10487;53.320;8.672;2023-01-29T17:26:16;101560.16;;;1.76;61.63
20656;BME280;10487;53.320;8.672;2023-01-29T17:29:22;101564.72;;;1.69;61.61
20656;BME280;10487;53.320;8.672;2023-01-29T17:32:24;101563.03;;;1.65;61.54
20656;BME280;10487;53.320;8.672;2023-01-29T17:35:45;101556.22;;;1.58;61.73
20656;BME280;10487;53.320;8.672;2023-01-29T17:38:46;101553.75;;;1.52;61.91
20656;BME280;10487;53.320;8.672;2023-01-29T17:41:50;101543.34;;;1.46;61.88
20656;BME280;10487;53.320;8.672;2023-01-29T17:44:52;101541.69;;;1.42;61.86
20656;BME280;10487;53.320;8.672;2023-01-29T17:47:54;101523.41;;;1.37;61.57
20656;BME280;10487;53.320;8.672;2023-01-29T17:50:58;101521.72;;;1.33;62.02
20656;BME280;10487;53.320;8.672;2023-01-29T17:54:01;101508.66;;;1.30;61.84
20656;BME280;10487;53.320;8.672;2023-01-29T17:57:02;101496.44;;;1.28;61.69
20656;BME280;10487;53.320;8.672;2023-01-29T18:00:19;101489.47;;;1.25;61.77
20656;BME280;10487;53.320;8.672;2023-01-29T18:03:21;101485.16;;;1.23;61.93
20656;BME280;10487;53.320;8.672;2023-01-29T18:06:27;101482.53;;;1.23;62.02
20656;BME280;10487;53.320;8.672;2023-01-29T18:09:30;101489.59;;;1.22;61.93
20656;BME280;10487;53.320;8.672;2023-01-29T18:12:31;101472.06;;;1.21;61.88
20656;BME280;10487;53.320;8.672;2023-01-29T18:15:33;101467.75;;;1.19;61.71
20656;BME280;10487;53.320;8.672;2023-01-29T18:18:35;101455.47;;;1.18;62.12
20656;BME280;10487;53.320;8.672;2023-01-29T18:21:36;101444.13;;;1.17;61.65
20656;BME280;10487;53.320;8.672;2023-01-29T18:24:38;101446.78;;;1.16;61.70
20656;BME280;10487;53.320;8.672;2023-01-29T18:27:40;101454.72;;;1.14;61.96
20656;BME280;10487;53.320;8.672;2023-01-29T18:30:46;101449.50;;;1.13;61.99
20656;BME280;10487;53.320;8.672;2023-01-29T18:33:48;101429.34;;;1.12;61.62